sensor_id;sensor_type;location;lat;lon;timestamp;P1;durP1;ratioP1;P2;durP2;ratioP2
16409;SDS011;8314;52.426;13.284;2022-07-21T00:00:13;11.23;;;8.30;;
16409;SDS011;8314;52.426;13.284;2022-07-21T00:02:41;10.48;;;8.02;;
16409;SDS011;8314;52.426;13.284;2022-07-21T00:05:09;12.90;;;7.50;;
16409;SDS011;8314;52.426;13.284;2022-07-21T00:07:36;14.93;;;7.90;;
16409;SDS011;8314;52.426;13.284;2022-07-21T00:10:04;9.93;;;7.55;;
16409;SDS011;8314;52.426;13.284;2022-07-21T00:12:34;10.23;;;7.57;;
16409;SDS011;8314;52.426;13.284;2022-07-21T00:15:02;10.75;;;7.68;;
16409;SDS011;8314;52.426;13.284;2022-07-21T00:17:30;10.75;;;7.55;;
16409;SDS011;8314;52.426;13.284;2022-07-21T00:19:57;12.05;;;7.43;;
16409;SDS011;8314;52.426;13.284;2022-07-21T00:22:25;12.52;;;8.02;;
16409;SDS011;8314;52.426;13.284;2022-07-21T00:24:52;12.82;;;7.22;;
16409;SDS011;8314;52.426;13.284;2022-07-21T00:27:20;12.00;;;7.80;;
16409;SDS011;8314;52.426;13.284;2022-07-21T00:29:49;10.73;;;6.88;;
16409;SDS011;8314;52.426;13.284;2022-07-21T00:32:16;12.82;;;7.03;;
16409;SDS011;8314;52.426;13.284;2022-07-21T00:34:44;11.75;;;7.40;;
16409;SDS011;8314;52.426;13.284;2022-07-21T00:37:12;10.95;;;7.05;;
16409;SDS011;8314;52.426;13.284;2022-07-21T00:39:39;11.43;;;8.15;;
16409;SDS011;8314;52.426;13.284;2022-07-21T00:42:07;12.45;;;7.70;;
16409;SDS011;8314;52.426;13.284;2022-07-21T00:44:34;10.90;;;8.23;;
16409;SDS011;8314;52.426;13.284;2022-07-21T00:47:03;16.13;;;7.60;;
16409;SDS011;8314;52.426;13.284;2022-07-21T00:49:31;14.52;;;7.43;;
16409;SDS011;8314;52.426;13.284;2022-07-21T00:51:59;13.45;;;8.38;;
16409;SDS011;8314;52.426;13.284;2022-07-21T00:54:26;11.85;;;7.75;;
16409;SDS011;8314;52.426;13.284;2022-07-21T00:56:54;16.25;;;8.27;;
16409;SDS011;8314;52.426;13.284;2022-07-21T00:59:21;13.70;;;8.38;;
16409;SDS011;8314;52.426;13.284;2022-07-21T01:01:55;11.82;;;8.05;;
16409;SDS011;8314;52.426;13.284;2022-07-21T01:04:24;13.75;;;8.43;;
16409;SDS011;8314;52.426;13.284;2022-07-21T01:06:53;14.23;;;8.20;;
16409;SDS011;8314;52.426;13.284;2022-07-21T01:09:21;13.40;;;7.85;;
16409;SDS011;8314;52.426;13.284;2022-07-21T01:11:49;10.57;;;8.02;;
16409;SDS011;8314;52.426;13.284;2022-07-21T01:14:16;14.70;;;8.13;;
16409;SDS011;8314;52.426;13.284;2022-07-21T01:16:44;12.60;;;7.63;;
16409;SDS011;8314;52.426;13.284;2022-07-21T01:19:12;10.70;;;8.38;;
16409;SDS011;8314;52.426;13.284;2022-07-21T01:21:42;11.75;;;7.53;;
16409;SDS011;8314;52.426;13.284;2022-07-21T01:24:11;11.02;;;7.85;;
16409;SDS011;8314;52.426;13.284;2022-07-21T01:26:40;13.05;;;8.40;;
16409;SDS011;8314;52.426;13.284;2022-07-21T01:29:08;12.68;;;8.90;;
16409;SDS011;8314;52.426;13.284;2022-07-21T01:31:36;10.00;;;7.82;;
16409;SDS011;8314;52.426;13.284;2022-07-21T01:34:05;12.63;;;7.47;;
16409;SDS011;8314;52.426;13.284;2022-07-21T01:36:32;11.02;;;7.57;;
16409;SDS011;8314;52.426;13.284;2022-07-21T01:39:02;16.08;;;8.27;;
16409;SDS011;8314;52.426;13.284;2022-07-21T01:41:48;11.38;;;8.00;;
16409;SDS011;8314;52.426;13.284;2022-07-21T01:44:16;14.75;;;7.57;;
16409;SDS011;8314;52.426;13.284;2022-07-21T01:46:45;10.80;;;7.40;;
16409;SDS011;8314;52.426;13.284;2022-07-21T01:49:15;11.48;;;7.80;;
16409;SDS011;8314;52.426;13.284;2022-07-21T01:51:44;12.38;;;7.60;;
16409;SDS011;8314;52.426;13.284;2022-07-21T01:54:13;14.68;;;8.05;;
16409;SDS011;8314;52.426;13.284;2022-07-21T01:56:48;11.80;;;7.45;;
16409;SDS011;8314;52.426;13.284;2022-07-21T01:59:16;13.77;;;8.07;;
16409;SDS011;8314;52.426;13.284;2022-07-21T02:01:44;13.15;;;7.55;;
16409;SDS011;8314;52.426;13.284;2022-07-21T02:04:11;12.27;;;7.65;;
16409;SDS011;8314;52.426;13.284;2022-07-21T02:06:39;15.02;;;8.20;;
16409;SDS011;8314;52.426;13.284;2022-07-21T02:09:06;14.98;;;7.97;;
16409;SDS011;8314;52.426;13.284;2022-07-21T02:11:36;17.67;;;8.20;;
16409;SDS011;8314;52.426;13.284;2022-07-21T02:14:04;10.27;;;7.25;;
16409;SDS011;8314;52.426;13.284;2022-07-21T02:16:31;10.65;;;7.43;;
16409;SDS011;8314;52.426;13.284;2022-07-21T02:18:59;13.45;;;8.23;;
16409;SDS011;8314;52.426;13.284;2022-07-21T02:21:27;14.23;;;8.18;;
16409;SDS011;8314;52.426;13.284;2022-07-21T02:23:55;10.88;;;8.13;;
16409;SDS011;8314;52.426;13.284;2022-07-21T02:26:22;10.77;;;7.88;;
16409;SDS011;8314;52.426;13.284;2022-07-21T02:28:51;12.02;;;7.97;;
16409;SDS011;8314;52.426;13.284;2022-07-21T02:31:19;14.27;;;8.20;;
16409;SDS011;8314;52.426;13.284;2022-07-21T02:33:47;11.30;;;8.30;;
16409;SDS011;8314;52.426;13.284;2022-07-21T02:36:15;18.50;;;8.90;;
16409;SDS011;8314;52.426;13.284;2022-07-21T02:38:42;12.10;;;7.97;;
16409;SDS011;8314;52.426;13.284;2022-07-21T02:41:10;11.18;;;7.93;;
16409;SDS011;8314;52.426;13.284;2022-07-21T02:43:37;10.02;;;7.80;;
16409;SDS011;8314;52.426;13.284;2022-07-21T02:46:06;12.52;;;7.57;;
16409;SDS011;8314;52.426;13.284;2022-07-21T02:48:34;13.55;;;8.60;;
16409;SDS011;8314;52.426;13.284;2022-07-21T02:51:01;16.05;;;8.35;;
16409;SDS011;8314;52.426;13.284;2022-07-21T02:53:33;14.60;;;9.30;;
16409;SDS011;8314;52.426;13.284;2022-07-21T02:56:01;12.25;;;7.72;;
16409;SDS011;8314;52.426;13.284;2022-07-21T02:58:29;13.25;;;7.65;;
16409;SDS011;8314;52.426;13.284;2022-07-21T03:00:58;13.18;;;7.25;;
16409;SDS011;8314;52.426;13.284;2022-07-21T03:03:28;11.25;;;7.35;;
16409;SDS011;8314;52.426;13.284;2022-07-21T03:05:58;9.65;;;7.32;;
16409;SDS011;8314;52.426;13.284;2022-07-21T03:08:26;11.27;;;7.35;;
16409;SDS011;8314;52.426;13.284;2022-07-21T03:10:55;10.52;;;7.25;;
16409;SDS011;8314;52.426;13.284;2022-07-21T03:13:23;10.30;;;6.97;;
16409;SDS011;8314;52.426;13.284;2022-07-21T03:15:51;11.23;;;7.50;;
16409;SDS011;8314;52.426;13.284;2022-07-21T03:18:19;12.98;;;7.30;;
16409;SDS011;8314;52.426;13.284;2022-07-21T03:20:48;9.52;;;7.20;;
16409;SDS011;8314;52.426;13.284;2022-07-21T03:23:16;12.15;;;7.80;;
16409;SDS011;8314;52.426;13.284;2022-07-21T03:25:43;9.70;;;7.20;;
16409;SDS011;8314;52.426;13.284;2022-07-21T03:28:11;16.63;;;7.55;;
16409;SDS011;8314;52.426;13.284;2022-07-21T03:30:38;12.82;;;7.63;;
16409;SDS011;8314;52.426;13.284;2022-07-21T03:33:06;12.05;;;7.85;;
16409;SDS011;8314;52.426;13.284;2022-07-21T03:35:34;12.40;;;7.25;;
16409;SDS011;8314;52.426;13.284;2022-07-21T03:38:04;11.23;;;7.55;;
16409;SDS011;8314;52.426;13.284;2022-07-21T03:40:32;11.52;;;7.65;;
16409;SDS011;8314;52.426;13.284;2022-07-21T03:43:02;13.27;;;7.47;;
16409;SDS011;8314;52.426;13.284;2022-07-21T03:45:31;15.07;;;7.32;;
16409;SDS011;8314;52.426;13.284;2022-07-21T03:48:01;10.60;;;7.38;;
16409;SDS011;8314;52.426;13.284;2022-07-21T03:50:30;11.25;;;7.75;;
16409;SDS011;8314;52.426;13.284;2022-07-21T03:52:58;9.77;;;6.65;;
16409;SDS011;8314;52.426;13.284;2022-07-21T03:55:27;9.02;;;7.28;;
16409;SDS011;8314;52.426;13.284;2022-07-21T03:57:56;13.35;;;7.57;;
16409;SDS011;8314;52.426;13.284;2022-07-21T04:00:26;11.18;;;7.60;;
16409;SDS011;8314;52.426;13.284;2022-07-21T04:02:55;14.15;;;7.80;;
16409;SDS011;8314;52.426;13.284;2022-07-21T04:05:24;12.05;;;6.95;;
16409;SDS011;8314;52.426;13.284;2022-07-21T04:07:52;11.82;;;7.05;;
16409;SDS011;8314;52.426;13.284;2022-07-21T04:10:22;10.38;;;7.30;;
16409;SDS011;8314;52.426;13.284;2022-07-21T04:12:57;12.50;;;7.55;;
16409;SDS011;8314;52.426;13.284;2022-07-21T04:15:27;13.25;;;6.78;;
16409;SDS011;8314;52.426;13.284;2022-07-21T04:17:56;11.57;;;7.07;;
16409;SDS011;8314;52.426;13.284;2022-07-21T04:20:24;10.75;;;6.75;;
16409;SDS011;8314;52.426;13.284;2022-07-21T04:22:52;9.38;;;7.05;;
16409;SDS011;8314;52.426;13.284;2022-07-21T04:25:21;13.80;;;7.25;;
16409;SDS011;8314;52.426;13.284;2022-07-21T04:27:50;12.18;;;7.18;;
16409;SDS011;8314;52.426;13.284;2022-07-21T04:30:20;10.60;;;6.88;;
16409;SDS011;8314;52.426;13.284;2022-07-21T04:32:49;12.50;;;7.25;;
16409;SDS011;8314;52.426;13.284;2022-07-21T04:35:18;11.18;;;7.30;;
16409;SDS011;8314;52.426;13.284;2022-07-21T04:37:46;13.32;;;6.90;;
16409;SDS011;8314;52.426;13.284;2022-07-21T04:40:14;14.52;;;6.85;;
16409;SDS011;8314;52.426;13.284;2022-07-21T04:42:43;11.82;;;7.55;;
16409;SDS011;8314;52.426;13.284;2022-07-21T04:45:11;15.43;;;8.38;;
16409;SDS011;8314;52.426;13.284;2022-07-21T04:47:45;18.42;;;10.50;;
16409;SDS011;8314;52.426;13.284;2022-07-21T04:50:13;18.70;;;11.10;;
16409;SDS011;8314;52.426;13.284;2022-07-21T04:52:42;18.92;;;12.52;;
16409;SDS011;8314;52.426;13.284;2022-07-21T04:55:10;20.20;;;13.93;;
16409;SDS011;8314;52.426;13.284;2022-07-21T04:57:38;26.23;;;15.80;;
16409;SDS011;8314;52.426;13.284;2022-07-21T05:00:07;25.48;;;15.20;;
16409;SDS011;8314;52.426;13.284;2022-07-21T05:02:36;24.35;;;17.20;;
16409;SDS011;8314;52.426;13.284;2022-07-21T05:05:06;22.60;;;16.02;;
16409;SDS011;8314;52.426;13.284;2022-07-21T05:07:34;21.98;;;16.13;;
16409;SDS011;8314;52.426;13.284;2022-07-21T05:10:06;24.88;;;16.48;;
16409;SDS011;8314;52.426;13.284;2022-07-21T05:12:34;22.15;;;15.90;;
16409;SDS011;8314;52.426;13.284;2022-07-21T05:15:03;24.48;;;17.35;;
16409;SDS011;8314;52.426;13.284;2022-07-21T05:17:31;24.88;;;17.08;;
16409;SDS011;8314;52.426;13.284;2022-07-21T05:19:59;22.30;;;16.13;;
16409;SDS011;8314;52.426;13.284;2022-07-21T05:22:28;25.55;;;17.63;;
16409;SDS011;8314;52.426;13.284;2022-07-21T05:24:55;24.40;;;17.42;;
16409;SDS011;8314;52.426;13.284;2022-07-21T05:27:23;26.80;;;18.00;;
16409;SDS011;8314;52.426;13.284;2022-07-21T05:29:50;29.75;;;17.75;;
16409;SDS011;8314;52.426;13.284;2022-07-21T05:32:18;24.63;;;17.08;;
16409;SDS011;8314;52.426;13.284;2022-07-21T05:34:46;27.58;;;17.52;;
16409;SDS011;8314;52.426;13.284;2022-07-21T05:37:13;24.38;;;17.42;;
16409;SDS011;8314;52.426;13.284;2022-07-21T05:39:42;25.73;;;16.80;;
16409;SDS011;8314;52.426;13.284;2022-07-21T05:42:10;27.98;;;18.48;;
16409;SDS011;8314;52.426;13.284;2022-07-21T05:44:37;28.35;;;18.23;;
16409;SDS011;8314;52.426;13.284;2022-07-21T05:47:05;25.48;;;17.88;;
16409;SDS011;8314;52.426;13.284;2022-07-21T05:49:32;24.13;;;16.73;;
16409;SDS011;8314;52.426;13.284;2022-07-21T05:52:00;33.08;;;17.45;;
16409;SDS011;8314;52.426;13.284;2022-07-21T05:54:27;25.70;;;17.80;;
16409;SDS011;8314;52.426;13.284;2022-07-21T05:56:56;23.33;;;17.85;;
16409;SDS011;8314;52.426;13.284;2022-07-21T05:59:24;34.75;;;18.65;;
16409;SDS011;8314;52.426;13.284;2022-07-21T06:01:52;26.60;;;17.02;;
16409;SDS011;8314;52.426;13.284;2022-07-21T06:04:19;25.25;;;17.23;;
16409;SDS011;8314;52.426;13.284;2022-07-21T06:06:47;27.38;;;17.25;;
16409;SDS011;8314;52.426;13.284;2022-07-21T06:09:15;26.30;;;17.08;;
16409;SDS011;8314;52.426;13.284;2022-07-21T06:11:42;24.73;;;16.92;;
16409;SDS011;8314;52.426;13.284;2022-07-21T06:14:11;26.05;;;16.27;;
16409;SDS011;8314;52.426;13.284;2022-07-21T06:16:39;26.00;;;17.52;;
16409;SDS011;8314;52.426;13.284;2022-07-21T06:19:07;23.25;;;16.77;;
16409;SDS011;8314;52.426;13.284;2022-07-21T06:21:34;24.20;;;16.58;;
16409;SDS011;8314;52.426;13.284;2022-07-21T06:24:11;22.67;;;15.75;;
16409;SDS011;8314;52.426;13.284;2022-07-21T06:26:39;26.73;;;16.77;;
16409;SDS011;8314;52.426;13.284;2022-07-21T06:29:06;26.05;;;16.67;;
16409;SDS011;8314;52.426;13.284;2022-07-21T06:31:36;22.27;;;15.73;;
16409;SDS011;8314;52.426;13.284;2022-07-21T06:34:03;28.95;;;16.15;;
16409;SDS011;8314;52.426;13.284;2022-07-21T06:36:31;26.88;;;16.60;;
16409;SDS011;8314;52.426;13.284;2022-07-21T06:38:59;26.90;;;16.08;;
16409;SDS011;8314;52.426;13.284;2022-07-21T06:41:26;24.07;;;16.67;;
16409;SDS011;8314;52.426;13.284;2022-07-21T06:43:54;24.98;;;15.90;;
16409;SDS011;8314;52.426;13.284;2022-07-21T06:46:22;19.85;;;14.60;;
16409;SDS011;8314;52.426;13.284;2022-07-21T06:48:51;22.20;;;14.82;;
16409;SDS011;8314;52.426;13.284;2022-07-21T06:51:18;22.67;;;15.23;;
16409;SDS011;8314;52.426;13.284;2022-07-21T06:53:46;21.92;;;14.80;;
16409;SDS011;8314;52.426;13.284;2022-07-21T06:56:14;25.65;;;15.20;;
16409;SDS011;8314;52.426;13.284;2022-07-21T06:58:41;26.02;;;15.68;;
16409;SDS011;8314;52.426;13.284;2022-07-21T07:01:15;21.15;;;13.43;;
16409;SDS011;8314;52.426;13.284;2022-07-21T07:03:45;22.33;;;14.38;;
16409;SDS011;8314;52.426;13.284;2022-07-21T07:06:15;23.38;;;14.57;;
16409;SDS011;8314;52.426;13.284;2022-07-21T07:08:43;22.70;;;14.10;;
16409;SDS011;8314;52.426;13.284;2022-07-21T07:11:10;21.42;;;14.93;;
16409;SDS011;8314;52.426;13.284;2022-07-21T07:13:38;20.83;;;14.10;;
16409;SDS011;8314;52.426;13.284;2022-07-21T07:16:21;24.50;;;14.57;;
16409;SDS011;8314;52.426;13.284;2022-07-21T07:18:48;18.42;;;14.00;;
16409;SDS011;8314;52.426;13.284;2022-07-21T07:21:18;21.10;;;14.30;;
16409;SDS011;8314;52.426;13.284;2022-07-21T07:23:45;21.73;;;13.98;;
16409;SDS011;8314;52.426;13.284;2022-07-21T07:26:13;19.42;;;13.73;;
16409;SDS011;8314;52.426;13.284;2022-07-21T07:28:41;20.17;;;12.50;;
16409;SDS011;8314;52.426;13.284;2022-07-21T07:31:08;18.60;;;13.07;;
16409;SDS011;8314;52.426;13.284;2022-07-21T07:33:36;19.58;;;13.80;;
16409;SDS011;8314;52.426;13.284;2022-07-21T07:36:03;19.02;;;13.45;;
16409;SDS011;8314;52.426;13.284;2022-07-21T07:38:32;19.48;;;13.07;;
16409;SDS011;8314;52.426;13.284;2022-07-21T07:41:00;22.23;;;13.23;;
16409;SDS011;8314;52.426;13.284;2022-07-21T07:43:28;23.92;;;14.20;;
16409;SDS011;8314;52.426;13.284;2022-07-21T07:45:56;21.60;;;13.00;;
16409;SDS011;8314;52.426;13.284;2022-07-21T07:48:23;19.10;;;12.73;;
16409;SDS011;8314;52.426;13.284;2022-07-21T07:50:51;19.75;;;12.65;;
16409;SDS011;8314;52.426;13.284;2022-07-21T07:53:18;18.70;;;12.82;;
16409;SDS011;8314;52.426;13.284;2022-07-21T07:55:47;21.30;;;13.25;;
16409;SDS011;8314;52.426;13.284;2022-07-21T07:58:15;18.73;;;13.68;;
16409;SDS011;8314;52.426;13.284;2022-07-21T08:00:42;21.05;;;12.82;;
16409;SDS011;8314;52.426;13.284;2022-07-21T08:03:21;18.42;;;12.98;;
16409;SDS011;8314;52.426;13.284;2022-07-21T08:05:49;17.65;;;12.40;;
16409;SDS011;8314;52.426;13.284;2022-07-21T08:08:17;17.27;;;12.40;;
16409;SDS011;8314;52.426;13.284;2022-07-21T08:10:44;17.48;;;12.90;;
16409;SDS011;8314;52.426;13.284;2022-07-21T08:13:15;19.38;;;13.23;;
16409;SDS011;8314;52.426;13.284;2022-07-21T08:15:45;22.35;;;13.30;;
16409;SDS011;8314;52.426;13.284;2022-07-21T08:18:14;17.88;;;13.02;;
16409;SDS011;8314;52.426;13.284;2022-07-21T08:20:44;18.15;;;13.10;;
16409;SDS011;8314;52.426;13.284;2022-07-21T08:23:12;22.50;;;13.68;;
16409;SDS011;8314;52.426;13.284;2022-07-21T08:25:40;17.15;;;12.55;;
16409;SDS011;8314;52.426;13.284;2022-07-21T08:28:08;19.10;;;12.27;;
16409;SDS011;8314;52.426;13.284;2022-07-21T08:30:38;19.67;;;12.88;;
16409;SDS011;8314;52.426;13.284;2022-07-21T08:33:05;18.02;;;12.38;;
16409;SDS011;8314;52.426;13.284;2022-07-21T08:35:33;18.85;;;12.77;;
16409;SDS011;8314;52.426;13.284;2022-07-21T08:38:02;17.17;;;11.82;;
16409;SDS011;8314;52.426;13.284;2022-07-21T08:40:32;18.02;;;11.85;;
16409;SDS011;8314;52.426;13.284;2022-07-21T08:43:01;18.63;;;12.02;;
16409;SDS011;8314;52.426;13.284;2022-07-21T08:45:29;17.63;;;11.93;;
16409;SDS011;8314;52.426;13.284;2022-07-21T08:47:58;17.40;;;12.45;;
16409;SDS011;8314;52.426;13.284;2022-07-21T08:50:28;17.23;;;11.73;;
16409;SDS011;8314;52.426;13.284;2022-07-21T08:52:58;22.27;;;12.27;;
16409;SDS011;8314;52.426;13.284;2022-07-21T08:55:28;17.33;;;11.90;;
16409;SDS011;8314;52.426;13.284;2022-07-21T08:57:57;18.85;;;11.40;;
16409;SDS011;8314;52.426;13.284;2022-07-21T09:00:25;16.80;;;10.85;;
16409;SDS011;8314;52.426;13.284;2022-07-21T09:05:42;15.40;;;11.73;;
16409;SDS011;8314;52.426;13.284;2022-07-21T09:08:10;15.13;;;11.70;;
16409;SDS011;8314;52.426;13.284;2022-07-21T09:10:37;15.77;;;10.93;;
16409;SDS011;8314;52.426;13.284;2022-07-21T09:13:06;16.75;;;11.15;;
16409;SDS011;8314;52.426;13.284;2022-07-21T09:15:34;14.07;;;10.82;;
16409;SDS011;8314;52.426;13.284;2022-07-21T09:18:06;14.90;;;10.52;;
16409;SDS011;8314;52.426;13.284;2022-07-21T09:20:40;13.02;;;10.88;;
16409;SDS011;8314;52.426;13.284;2022-07-21T09:23:15;13.35;;;10.70;;
16409;SDS011;8314;52.426;13.284;2022-07-21T09:25:45;14.63;;;10.32;;
16409;SDS011;8314;52.426;13.284;2022-07-21T09:28:15;12.95;;;10.15;;
16409;SDS011;8314;52.426;13.284;2022-07-21T09:30:47;13.20;;;9.73;;
16409;SDS011;8314;52.426;13.284;2022-07-21T09:35:54;14.77;;;9.75;;
16409;SDS011;8314;52.426;13.284;2022-07-21T09:38:23;13.73;;;9.25;;
16409;SDS011;8314;52.426;13.284;2022-07-21T09:40:51;13.82;;;8.90;;
16409;SDS011;8314;52.426;13.284;2022-07-21T09:43:28;14.10;;;8.88;;
16409;SDS011;8314;52.426;13.284;2022-07-21T09:45:59;14.35;;;8.75;;
16409;SDS011;8314;52.426;13.284;2022-07-21T09:48:28;10.27;;;7.93;;
16409;SDS011;8314;52.426;13.284;2022-07-21T09:51:24;9.52;;;7.25;;
16409;SDS011;8314;52.426;13.284;2022-07-21T09:53:55;12.77;;;7.53;;
16409;SDS011;8314;52.426;13.284;2022-07-21T09:56:25;10.07;;;7.30;;
16409;SDS011;8314;52.426;13.284;2022-07-21T09:58:55;8.88;;;7.10;;
16409;SDS011;8314;52.426;13.284;2022-07-21T10:01:24;8.93;;;7.50;;
16409;SDS011;8314;52.426;13.284;2022-07-21T10:03:53;11.50;;;7.25;;
16409;SDS011;8314;52.426;13.284;2022-07-21T10:06:24;11.77;;;7.85;;
16409;SDS011;8314;52.426;13.284;2022-07-21T10:08:54;10.55;;;7.60;;
16409;SDS011;8314;52.426;13.284;2022-07-21T10:11:23;11.25;;;7.78;;
16409;SDS011;8314;52.426;13.284;2022-07-21T10:13:55;11.40;;;7.40;;
16409;SDS011;8314;52.426;13.284;2022-07-21T10:16:23;12.80;;;8.23;;
16409;SDS011;8314;52.426;13.284;2022-07-21T10:18:53;13.25;;;7.80;;
16409;SDS011;8314;52.426;13.284;2022-07-21T10:21:29;13.38;;;8.43;;
16409;SDS011;8314;52.426;13.284;2022-07-21T10:24:00;11.13;;;7.45;;
16409;SDS011;8314;52.426;13.284;2022-07-21T10:26:28;11.68;;;8.02;;
16409;SDS011;8314;52.426;13.284;2022-07-21T10:28:56;10.35;;;7.07;;
16409;SDS011;8314;52.426;13.284;2022-07-21T10:31:24;13.55;;;7.63;;
16409;SDS011;8314;52.426;13.284;2022-07-21T10:33:55;12.13;;;7.82;;
16409;SDS011;8314;52.426;13.284;2022-07-21T10:36:41;9.73;;;7.05;;
16409;SDS011;8314;52.426;13.284;2022-07-21T10:39:20;11.15;;;7.20;;
16409;SDS011;8314;52.426;13.284;2022-07-21T10:41:55;11.68;;;7.10;;
16409;SDS011;8314;52.426;13.284;2022-07-21T10:44:44;14.15;;;7.10;;
16409;SDS011;8314;52.426;13.284;2022-07-21T10:47:13;8.18;;;6.63;;
16409;SDS011;8314;52.426;13.284;2022-07-21T10:49:48;9.48;;;6.30;;
16409;SDS011;8314;52.426;13.284;2022-07-21T10:55:14;11.63;;;6.47;;
16409;SDS011;8314;52.426;13.284;2022-07-21T11:00:37;8.48;;;5.85;;
16409;SDS011;8314;52.426;13.284;2022-07-21T11:03:13;11.57;;;6.22;;
16409;SDS011;8314;52.426;13.284;2022-07-21T11:08:41;10.95;;;6.60;;
16409;SDS011;8314;52.426;13.284;2022-07-21T11:11:12;12.35;;;6.60;;
16409;SDS011;8314;52.426;13.284;2022-07-21T11:13:57;12.73;;;8.38;;
16409;SDS011;8314;52.426;13.284;2022-07-21T11:19:33;9.98;;;5.97;;
16409;SDS011;8314;52.426;13.284;2022-07-21T11:22:04;8.82;;;6.30;;
16409;SDS011;8314;52.426;13.284;2022-07-21T11:24:34;10.85;;;6.70;;
16409;SDS011;8314;52.426;13.284;2022-07-21T11:27:03;9.48;;;5.85;;
16409;SDS011;8314;52.426;13.284;2022-07-21T11:29:33;8.98;;;6.63;;
16409;SDS011;8314;52.426;13.284;2022-07-21T11:32:02;10.15;;;6.78;;
16409;SDS011;8314;52.426;13.284;2022-07-21T11:34:37;10.57;;;6.65;;
16409;SDS011;8314;52.426;13.284;2022-07-21T11:37:10;11.75;;;6.88;;
16409;SDS011;8314;52.426;13.284;2022-07-21T11:39:59;11.27;;;6.55;;
16409;SDS011;8314;52.426;13.284;2022-07-21T11:42:28;10.45;;;6.78;;
16409;SDS011;8314;52.426;13.284;2022-07-21T11:44:57;11.35;;;6.40;;
16409;SDS011;8314;52.426;13.284;2022-07-21T11:47:25;12.80;;;7.05;;
16409;SDS011;8314;52.426;13.284;2022-07-21T11:49:53;10.52;;;6.60;;
16409;SDS011;8314;52.426;13.284;2022-07-21T11:52:24;12.65;;;6.68;;
16409;SDS011;8314;52.426;13.284;2022-07-21T11:54:53;11.40;;;6.90;;
16409;SDS011;8314;52.426;13.284;2022-07-21T11:57:22;8.32;;;6.05;;
16409;SDS011;8314;52.426;13.284;2022-07-21T11:59:54;11.68;;;7.00;;
16409;SDS011;8314;52.426;13.284;2022-07-21T12:02:22;12.80;;;6.82;;
16409;SDS011;8314;52.426;13.284;2022-07-21T12:04:52;11.90;;;6.55;;
16409;SDS011;8314;52.426;13.284;2022-07-21T12:07:22;12.30;;;7.18;;
16409;SDS011;8314;52.426;13.284;2022-07-21T12:09:53;9.85;;;6.38;;
16409;SDS011;8314;52.426;13.284;2022-07-21T12:12:28;13.27;;;7.22;;
16409;SDS011;8314;52.426;13.284;2022-07-21T12:15:09;11.07;;;7.13;;
16409;SDS011;8314;52.426;13.284;2022-07-21T12:17:38;11.65;;;6.70;;
16409;SDS011;8314;52.426;13.284;2022-07-21T12:20:07;13.52;;;6.97;;
16409;SDS011;8314;52.426;13.284;2022-07-21T12:22:36;12.13;;;7.93;;
16409;SDS011;8314;52.426;13.284;2022-07-21T12:25:07;15.05;;;7.65;;
16409;SDS011;8314;52.426;13.284;2022-07-21T12:27:35;14.30;;;7.60;;
16409;SDS011;8314;52.426;13.284;2022-07-21T12:30:06;15.43;;;8.35;;
16409;SDS011;8314;52.426;13.284;2022-07-21T12:32:43;14.10;;;7.80;;
16409;SDS011;8314;52.426;13.284;2022-07-21T12:35:23;14.27;;;7.32;;
16409;SDS011;8314;52.426;13.284;2022-07-21T12:37:59;12.05;;;7.78;;
16409;SDS011;8314;52.426;13.284;2022-07-21T12:40:32;11.00;;;7.53;;
16409;SDS011;8314;52.426;13.284;2022-07-21T12:43:05;13.60;;;7.50;;
16409;SDS011;8314;52.426;13.284;2022-07-21T12:45:46;11.27;;;7.80;;
16409;SDS011;8314;52.426;13.284;2022-07-21T12:48:19;14.88;;;7.63;;
16409;SDS011;8314;52.426;13.284;2022-07-21T12:51:11;13.05;;;7.95;;
16409;SDS011;8314;52.426;13.284;2022-07-21T12:53:42;14.20;;;7.50;;
16409;SDS011;8314;52.426;13.284;2022-07-21T12:56:11;15.60;;;6.85;;
16409;SDS011;8314;52.426;13.284;2022-07-21T12:58:41;11.73;;;7.07;;
16409;SDS011;8314;52.426;13.284;2022-07-21T13:01:11;11.77;;;6.72;;
16409;SDS011;8314;52.426;13.284;2022-07-21T13:03:39;10.55;;;6.30;;
16409;SDS011;8314;52.426;13.284;2022-07-21T13:06:07;9.63;;;6.47;;
16409;SDS011;8314;52.426;13.284;2022-07-21T13:08:35;10.45;;;6.43;;
16409;SDS011;8314;52.426;13.284;2022-07-21T13:11:04;7.35;;;5.85;;
16409;SDS011;8314;52.426;13.284;2022-07-21T13:13:32;10.63;;;6.57;;
16409;SDS011;8314;52.426;13.284;2022-07-21T13:16:00;9.32;;;6.32;;
16409;SDS011;8314;52.426;13.284;2022-07-21T13:18:29;10.20;;;6.45;;
16409;SDS011;8314;52.426;13.284;2022-07-21T13:20:57;11.27;;;6.38;;
16409;SDS011;8314;52.426;13.284;2022-07-21T13:23:24;10.27;;;6.72;;
16409;SDS011;8314;52.426;13.284;2022-07-21T13:25:52;10.05;;;6.57;;
16409;SDS011;8314;52.426;13.284;2022-07-21T13:28:30;9.82;;;6.28;;
16409;SDS011;8314;52.426;13.284;2022-07-21T13:30:57;10.13;;;6.50;;
16409;SDS011;8314;52.426;13.284;2022-07-21T13:33:25;10.70;;;6.50;;
16409;SDS011;8314;52.426;13.284;2022-07-21T13:35:54;10.55;;;6.68;;
16409;SDS011;8314;52.426;13.284;2022-07-21T13:38:21;10.23;;;7.00;;
16409;SDS011;8314;52.426;13.284;2022-07-21T13:40:49;10.23;;;6.57;;
16409;SDS011;8314;52.426;13.284;2022-07-21T13:43:36;10.55;;;7.00;;
16409;SDS011;8314;52.426;13.284;2022-07-21T13:46:15;11.43;;;7.68;;
16409;SDS011;8314;52.426;13.284;2022-07-21T13:48:43;11.35;;;6.90;;
16409;SDS011;8314;52.426;13.284;2022-07-21T13:51:13;10.77;;;6.85;;
16409;SDS011;8314;52.426;13.284;2022-07-21T13:53:43;9.75;;;6.68;;
16409;SDS011;8314;52.426;13.284;2022-07-21T13:56:11;10.93;;;6.80;;
16409;SDS011;8314;52.426;13.284;2022-07-21T13:58:39;13.93;;;7.47;;
16409;SDS011;8314;52.426;13.284;2022-07-21T14:01:08;12.55;;;7.28;;
16409;SDS011;8314;52.426;13.284;2022-07-21T14:03:37;11.55;;;7.85;;
16409;SDS011;8314;52.426;13.284;2022-07-21T14:06:04;12.73;;;6.72;;
16409;SDS011;8314;52.426;13.284;2022-07-21T14:08:34;10.63;;;6.40;;
16409;SDS011;8314;52.426;13.284;2022-07-21T14:11:01;10.00;;;6.57;;
16409;SDS011;8314;52.426;13.284;2022-07-21T14:13:29;8.88;;;5.88;;
16409;SDS011;8314;52.426;13.284;2022-07-21T14:15:57;9.05;;;6.25;;
16409;SDS011;8314;52.426;13.284;2022-07-21T14:18:25;10.68;;;6.53;;
16409;SDS011;8314;52.426;13.284;2022-07-21T14:20:52;9.18;;;6.60;;
16409;SDS011;8314;52.426;13.284;2022-07-21T14:23:20;9.43;;;6.03;;
16409;SDS011;8314;52.426;13.284;2022-07-21T14:25:50;9.07;;;6.45;;
16409;SDS011;8314;52.426;13.284;2022-07-21T14:28:18;10.07;;;6.43;;
16409;SDS011;8314;52.426;13.284;2022-07-21T14:30:46;10.68;;;7.28;;
16409;SDS011;8314;52.426;13.284;2022-07-21T14:33:14;7.78;;;5.72;;
16409;SDS011;8314;52.426;13.284;2022-07-21T14:35:42;12.00;;;6.75;;
16409;SDS011;8314;52.426;13.284;2022-07-21T14:38:10;9.82;;;6.53;;
16409;SDS011;8314;52.426;13.284;2022-07-21T14:40:37;8.13;;;6.13;;
16409;SDS011;8314;52.426;13.284;2022-07-21T14:43:07;9.40;;;6.38;;
16409;SDS011;8314;52.426;13.284;2022-07-21T14:45:35;9.57;;;6.55;;
16409;SDS011;8314;52.426;13.284;2022-07-21T14:48:02;9.05;;;6.47;;
16409;SDS011;8314;52.426;13.284;2022-07-21T14:50:30;10.05;;;6.60;;
16409;SDS011;8314;52.426;13.284;2022-07-21T14:52:57;10.18;;;6.13;;
16409;SDS011;8314;52.426;13.284;2022-07-21T14:55:26;10.18;;;6.65;;
16409;SDS011;8314;52.426;13.284;2022-07-21T14:57:55;11.85;;;6.30;;
16409;SDS011;8314;52.426;13.284;2022-07-21T15:00:24;9.38;;;6.18;;